This is the latest recevied weather packets stored in our database for station/object WX5II-15. If no packets are shown the sender has not sent any weather packets the latest 10 day(s).
| Time | Temp. | Humidity | Pressure | Rain* | Wind** | Luminosity | Snow |
|---|---|---|---|---|---|---|---|
| 1787975189 | 27.22° C | 74% | 1007.7 hPa | 0 mm | - | - | - |
| 1787974589 | 27.78° C | 74% | 1007.7 hPa | 0 mm | - | - | - |
| 1787973988 | 27.78° C | 73% | 1007.7 hPa | 0 mm | - | - | - |
| 1787973388 | 27.78° C | 74% | 1007.7 hPa | 0 mm | - | - | - |
| 1787972788 | 27.78° C | 74% | 1007.7 hPa | 0 mm | - | - | - |
| 1787972187 | 27.78° C | 74% | 1007.7 hPa | 0 mm | - | - | - |
| 1787971587 | 27.78° C | 74% | 1007.4 hPa | 0 mm | - | - | - |
| 1787970985 | 27.78° C | 74% | 1007.1 hPa | 0 mm | - | - | - |
| 1787970385 | 27.78° C | 73% | 1007.1 hPa | 0 mm | - | - | - |
| 1787969784 | 27.78° C | 72% | 1006.7 hPa | 0 mm | - | - | - |
| 1787969183 | 27.78° C | 70% | 1006.7 hPa | 0 mm | - | - | - |
| 1787968583 | 27.78° C | 70% | 1007.1 hPa | 0 mm | - | - | - |
| 1787967983 | 27.78° C | 69% | 1006.7 hPa | 0 mm | - | - | - |
| 1787967382 | 27.78° C | 68% | 1006.7 hPa | 0 mm | - | - | - |
| 1787966781 | 27.78° C | 67% | 1006.7 hPa | 0 mm | - | - | - |
| 1787966181 | 27.78° C | 68% | 1006.7 hPa | 0 mm | - | - | - |
| 1787965581 | 28.33° C | 68% | 1006.4 hPa | 0 mm | - | - | - |
| 1787964980 | 28.33° C | 69% | 1006 hPa | 0.51 mm | - | - | - |
| 1787964379 | 27.78° C | 71% | 1006 hPa | 0.51 mm | - | - | - |
| 1787963779 | 27.78° C | 70% | 1005.7 hPa | 0.51 mm | - | - | - |
| 1787963178 | 27.78° C | 70% | 1005.7 hPa | 0.51 mm | - | - | - |
| 1787961977 | 28.89° C | 65% | 1006 hPa | 0.51 mm | - | - | - |
| 1787961376 | 31.11° C | 57% | 1006 hPa | 0 mm | - | - | - |
| 1787960776 | 32.22° C | 50% | 1005.7 hPa | 0 mm | - | - | - |
| 1787960175 | 33.33° C | 50% | 1005.7 hPa | 0 mm | - | - | - |
* Rain latest hour (hover to see other rain measurements)
** Current wind speed in m/s (hover to see current wind gust speed)